sensor_id;sensor_type;location;lat;lon;timestamp;temperature;humidity
43679;DHT22;29279;50.858;4.392;2023-06-05T00:01:47;17.80;96.20
43679;DHT22;29279;50.858;4.392;2023-06-05T00:04:13;17.70;96.30
43679;DHT22;29279;50.858;4.392;2023-06-05T00:06:40;17.70;96.60
43679;DHT22;29279;50.858;4.392;2023-06-05T00:09:06;17.60;96.80
43679;DHT22;29279;50.858;4.392;2023-06-05T00:11:32;17.50;96.90
43679;DHT22;29279;50.858;4.392;2023-06-05T00:13:58;17.50;97.20
43679;DHT22;29279;50.858;4.392;2023-06-05T00:16:23;17.40;97.30
43679;DHT22;29279;50.858;4.392;2023-06-05T00:18:49;17.40;97.50
43679;DHT22;29279;50.858;4.392;2023-06-05T00:21:15;17.40;97.60
43679;DHT22;29279;50.858;4.392;2023-06-05T00:23:41;17.30;97.80
43679;DHT22;29279;50.858;4.392;2023-06-05T00:26:07;17.30;98.00
43679;DHT22;29279;50.858;4.392;2023-06-05T00:28:33;17.30;98.00
43679;DHT22;29279;50.858;4.392;2023-06-05T00:30:59;17.30;98.20
43679;DHT22;29279;50.858;4.392;2023-06-05T00:33:26;17.30;98.20
43679;DHT22;29279;50.858;4.392;2023-06-05T00:35:52;17.30;98.10
43679;DHT22;29279;50.858;4.392;2023-06-05T00:38:18;17.30;98.20
43679;DHT22;29279;50.858;4.392;2023-06-05T00:40:43;17.20;98.40
43679;DHT22;29279;50.858;4.392;2023-06-05T00:43:09;17.20;98.50
43679;DHT22;29279;50.858;4.392;2023-06-05T00:45:35;17.20;98.60
43679;DHT22;29279;50.858;4.392;2023-06-05T00:48:01;17.10;98.90
43679;DHT22;29279;50.858;4.392;2023-06-05T00:50:26;17.00;99.20
43679;DHT22;29279;50.858;4.392;2023-06-05T00:52:53;16.90;99.40
43679;DHT22;29279;50.858;4.392;2023-06-05T00:55:19;16.80;99.70
43679;DHT22;29279;50.858;4.392;2023-06-05T00:57:45;16.80;99.60
43679;DHT22;29279;50.858;4.392;2023-06-05T01:00:11;16.80;99.70
43679;DHT22;29279;50.858;4.392;2023-06-05T01:02:39;16.70;99.90
43679;DHT22;29279;50.858;4.392;2023-06-05T01:05:05;16.70;99.90
43679;DHT22;29279;50.858;4.392;2023-06-05T01:07:35;16.70;99.90
43679;DHT22;29279;50.858;4.392;2023-06-05T01:10:06;16.70;99.90
43679;DHT22;29279;50.858;4.392;2023-06-05T01:15:07;16.60;99.90
43679;DHT22;29279;50.858;4.392;2023-06-05T01:17:33;16.60;99.90
43679;DHT22;29279;50.858;4.392;2023-06-05T01:20:00;16.50;99.90
43679;DHT22;29279;50.858;4.392;2023-06-05T01:22:32;16.50;99.90
43679;DHT22;29279;50.858;4.392;2023-06-05T01:24:57;16.50;99.90
43679;DHT22;29279;50.858;4.392;2023-06-05T01:27:30;16.50;99.90
43679;DHT22;29279;50.858;4.392;2023-06-05T01:30:08;16.50;99.90
43679;DHT22;29279;50.858;4.392;2023-06-05T01:33:38;16.40;99.90
43679;DHT22;29279;50.858;4.392;2023-06-05T01:35:46;16.40;99.90
43679;DHT22;29279;50.858;4.392;2023-06-05T01:38:17;16.30;99.90
43679;DHT22;29279;50.858;4.392;2023-06-05T01:40:43;16.30;99.90
43679;DHT22;29279;50.858;4.392;2023-06-05T01:43:11;16.30;99.90
43679;DHT22;29279;50.858;4.392;2023-06-05T01:45:38;16.20;99.90
43679;DHT22;29279;50.858;4.392;2023-06-05T01:48:07;16.20;99.90
43679;DHT22;29279;50.858;4.392;2023-06-05T01:50:36;16.20;99.90
43679;DHT22;29279;50.858;4.392;2023-06-05T01:53:04;16.10;99.90
43679;DHT22;29279;50.858;4.392;2023-06-05T01:55:30;16.20;99.90
43679;DHT22;29279;50.858;4.392;2023-06-05T01:57:55;16.20;99.90
43679;DHT22;29279;50.858;4.392;2023-06-05T02:00:21;16.10;99.90
43679;DHT22;29279;50.858;4.392;2023-06-05T02:02:48;16.10;99.90
43679;DHT22;29279;50.858;4.392;2023-06-05T02:05:15;16.10;99.90
43679;DHT22;29279;50.858;4.392;2023-06-05T02:07:45;16.00;99.90
43679;DHT22;29279;50.858;4.392;2023-06-05T02:10:24;16.00;99.90
43679;DHT22;29279;50.858;4.392;2023-06-05T02:12:50;16.00;99.90
43679;DHT22;29279;50.858;4.392;2023-06-05T02:15:16;16.10;99.90
43679;DHT22;29279;50.858;4.392;2023-06-05T02:17:43;16.00;99.90
43679;DHT22;29279;50.858;4.392;2023-06-05T02:20:23;15.90;99.90
43679;DHT22;29279;50.858;4.392;2023-06-05T02:22:49;15.80;99.90
43679;DHT22;29279;50.858;4.392;2023-06-05T02:25:17;15.70;99.90
43679;DHT22;29279;50.858;4.392;2023-06-05T02:27:44;15.80;99.90
43679;DHT22;29279;50.858;4.392;2023-06-05T02:30:10;15.70;99.90
43679;DHT22;29279;50.858;4.392;2023-06-05T02:32:37;15.70;99.90
43679;DHT22;29279;50.858;4.392;2023-06-05T02:35:07;15.80;99.90
43679;DHT22;29279;50.858;4.392;2023-06-05T02:37:33;15.80;99.90
43679;DHT22;29279;50.858;4.392;2023-06-05T02:40:04;15.80;99.90
43679;DHT22;29279;50.858;4.392;2023-06-05T02:42:30;15.80;99.90
43679;DHT22;29279;50.858;4.392;2023-06-05T02:44:56;15.70;99.90
43679;DHT22;29279;50.858;4.392;2023-06-05T02:47:22;15.70;99.90
43679;DHT22;29279;50.858;4.392;2023-06-05T02:49:47;15.70;99.90
43679;DHT22;29279;50.858;4.392;2023-06-05T02:52:13;15.60;99.90
43679;DHT22;29279;50.858;4.392;2023-06-05T02:54:39;15.60;99.90
43679;DHT22;29279;50.858;4.392;2023-06-05T02:57:05;15.60;99.90
43679;DHT22;29279;50.858;4.392;2023-06-05T02:59:33;15.60;99.90
43679;DHT22;29279;50.858;4.392;2023-06-05T03:02:05;15.50;99.90
43679;DHT22;29279;50.858;4.392;2023-06-05T03:04:31;15.50;99.90
43679;DHT22;29279;50.858;4.392;2023-06-05T03:06:58;15.50;99.90
43679;DHT22;29279;50.858;4.392;2023-06-05T03:09:30;15.40;99.90
43679;DHT22;29279;50.858;4.392;2023-06-05T03:11:59;15.40;99.90
43679;DHT22;29279;50.858;4.392;2023-06-05T03:14:25;15.40;99.90
43679;DHT22;29279;50.858;4.392;2023-06-05T03:16:56;15.40;99.90
43679;DHT22;29279;50.858;4.392;2023-06-05T03:19:24;15.30;99.90
43679;DHT22;29279;50.858;4.392;2023-06-05T03:21:50;15.30;99.90
43679;DHT22;29279;50.858;4.392;2023-06-05T03:24:16;15.10;99.90
43679;DHT22;29279;50.858;4.392;2023-06-05T03:26:43;15.00;99.90
43679;DHT22;29279;50.858;4.392;2023-06-05T03:29:10;15.10;99.90
43679;DHT22;29279;50.858;4.392;2023-06-05T03:31:36;15.20;99.90
43679;DHT22;29279;50.858;4.392;2023-06-05T03:34:02;15.10;99.90
43679;DHT22;29279;50.858;4.392;2023-06-05T03:36:32;15.20;99.90
43679;DHT22;29279;50.858;4.392;2023-06-05T03:39:03;15.00;99.90
43679;DHT22;29279;50.858;4.392;2023-06-05T03:41:29;15.10;99.90
43679;DHT22;29279;50.858;4.392;2023-06-05T03:43:54;15.10;99.90
43679;DHT22;29279;50.858;4.392;2023-06-05T03:46:20;15.20;99.90
43679;DHT22;29279;50.858;4.392;2023-06-05T03:48:46;15.20;99.90
43679;DHT22;29279;50.858;4.392;2023-06-05T03:51:14;15.10;99.90
43679;DHT22;29279;50.858;4.392;2023-06-05T03:53:43;15.10;99.90
43679;DHT22;29279;50.858;4.392;2023-06-05T03:56:08;15.20;99.90
43679;DHT22;29279;50.858;4.392;2023-06-05T03:58:34;15.20;99.90
43679;DHT22;29279;50.858;4.392;2023-06-05T04:01:00;15.10;99.90
43679;DHT22;29279;50.858;4.392;2023-06-05T04:03:26;15.00;99.90
43679;DHT22;29279;50.858;4.392;2023-06-05T04:05:52;15.10;99.90
43679;DHT22;29279;50.858;4.392;2023-06-05T04:08:18;15.10;99.90
43679;DHT22;29279;50.858;4.392;2023-06-05T04:10:44;15.10;99.90
43679;DHT22;29279;50.858;4.392;2023-06-05T04:13:10;15.00;99.90
43679;DHT22;29279;50.858;4.392;2023-06-05T04:15:35;15.10;99.90
43679;DHT22;29279;50.858;4.392;2023-06-05T04:18:02;15.00;99.90
43679;DHT22;29279;50.858;4.392;2023-06-05T04:20:28;15.00;99.90
43679;DHT22;29279;50.858;4.392;2023-06-05T04:22:54;15.10;99.90
43679;DHT22;29279;50.858;4.392;2023-06-05T04:25:19;15.00;99.90
43679;DHT22;29279;50.858;4.392;2023-06-05T04:27:48;15.10;99.90
43679;DHT22;29279;50.858;4.392;2023-06-05T04:30:15;15.20;99.90
43679;DHT22;29279;50.858;4.392;2023-06-05T04:32:41;15.10;99.90
43679;DHT22;29279;50.858;4.392;2023-06-05T04:35:07;15.10;99.90
43679;DHT22;29279;50.858;4.392;2023-06-05T04:37:34;15.20;99.90
43679;DHT22;29279;50.858;4.392;2023-06-05T04:40:01;15.10;99.90
43679;DHT22;29279;50.858;4.392;2023-06-05T04:42:33;15.10;99.90
43679;DHT22;29279;50.858;4.392;2023-06-05T04:45:01;15.10;99.90
43679;DHT22;29279;50.858;4.392;2023-06-05T04:47:27;15.10;99.90
43679;DHT22;29279;50.858;4.392;2023-06-05T04:49:53;15.20;99.90
43679;DHT22;29279;50.858;4.392;2023-06-05T04:52:21;15.20;99.90
43679;DHT22;29279;50.858;4.392;2023-06-05T04:54:47;15.10;99.90
43679;DHT22;29279;50.858;4.392;2023-06-05T04:57:13;15.20;99.90
43679;DHT22;29279;50.858;4.392;2023-06-05T04:59:39;15.20;99.90
43679;DHT22;29279;50.858;4.392;2023-06-05T05:02:05;15.30;99.90
43679;DHT22;29279;50.858;4.392;2023-06-05T05:04:31;15.30;99.90
43679;DHT22;29279;50.858;4.392;2023-06-05T05:06:56;15.40;99.90
43679;DHT22;29279;50.858;4.392;2023-06-05T05:09:32;15.40;99.90
43679;DHT22;29279;50.858;4.392;2023-06-05T05:11:59;15.40;99.90
43679;DHT22;29279;50.858;4.392;2023-06-05T05:14:25;15.50;99.90
43679;DHT22;29279;50.858;4.392;2023-06-05T05:16:54;15.50;99.90
43679;DHT22;29279;50.858;4.392;2023-06-05T05:19:22;15.60;99.90
43679;DHT22;29279;50.858;4.392;2023-06-05T05:21:48;15.60;99.90
43679;DHT22;29279;50.858;4.392;2023-06-05T05:24:15;15.60;99.90
43679;DHT22;29279;50.858;4.392;2023-06-05T05:26:40;15.60;99.90
43679;DHT22;29279;50.858;4.392;2023-06-05T05:29:06;15.50;99.90
43679;DHT22;29279;50.858;4.392;2023-06-05T05:31:32;15.50;99.90
43679;DHT22;29279;50.858;4.392;2023-06-05T05:33:58;15.60;99.90
43679;DHT22;29279;50.858;4.392;2023-06-05T05:36:27;15.60;99.90
43679;DHT22;29279;50.858;4.392;2023-06-05T05:38:53;15.60;99.90
43679;DHT22;29279;50.858;4.392;2023-06-05T05:41:19;15.80;99.90
43679;DHT22;29279;50.858;4.392;2023-06-05T05:43:46;15.70;99.90
43679;DHT22;29279;50.858;4.392;2023-06-05T05:46:11;15.90;99.90
43679;DHT22;29279;50.858;4.392;2023-06-05T05:48:37;16.00;99.90
43679;DHT22;29279;50.858;4.392;2023-06-05T05:51:05;16.10;99.90
43679;DHT22;29279;50.858;4.392;2023-06-05T05:53:31;16.20;99.90
43679;DHT22;29279;50.858;4.392;2023-06-05T05:55:57;16.30;99.90
43679;DHT22;29279;50.858;4.392;2023-06-05T05:58:22;16.40;99.90
43679;DHT22;29279;50.858;4.392;2023-06-05T06:00:48;16.50;99.90
43679;DHT22;29279;50.858;4.392;2023-06-05T06:03:16;16.40;99.90
43679;DHT22;29279;50.858;4.392;2023-06-05T06:05:43;16.40;99.90
43679;DHT22;29279;50.858;4.392;2023-06-05T06:08:10;16.50;99.90
43679;DHT22;29279;50.858;4.392;2023-06-05T06:10:36;16.60;99.90
43679;DHT22;29279;50.858;4.392;2023-06-05T06:13:02;16.80;99.90
43679;DHT22;29279;50.858;4.392;2023-06-05T06:15:28;16.90;99.90
43679;DHT22;29279;50.858;4.392;2023-06-05T06:17:53;16.90;99.90
43679;DHT22;29279;50.858;4.392;2023-06-05T06:20:19;16.90;99.90
43679;DHT22;29279;50.858;4.392;2023-06-05T06:22:45;16.80;99.90
43679;DHT22;29279;50.858;4.392;2023-06-05T06:25:11;16.90;99.90
43679;DHT22;29279;50.858;4.392;2023-06-05T06:27:38;16.90;99.90
43679;DHT22;29279;50.858;4.392;2023-06-05T06:30:04;17.10;99.80
43679;DHT22;29279;50.858;4.392;2023-06-05T06:32:30;17.10;99.60
43679;DHT22;29279;50.858;4.392;2023-06-05T06:34:56;17.10;99.60
43679;DHT22;29279;50.858;4.392;2023-06-05T06:37:22;17.10;99.60
43679;DHT22;29279;50.858;4.392;2023-06-05T06:39:48;17.10;99.60
43679;DHT22;29279;50.858;4.392;2023-06-05T06:42:14;17.20;99.50
43679;DHT22;29279;50.858;4.392;2023-06-05T06:44:41;17.30;99.30
43679;DHT22;29279;50.858;4.392;2023-06-05T06:47:07;17.30;99.10
43679;DHT22;29279;50.858;4.392;2023-06-05T06:49:34;17.30;99.20
43679;DHT22;29279;50.858;4.392;2023-06-05T06:52:01;17.40;99.20
43679;DHT22;29279;50.858;4.392;2023-06-05T06:54:27;17.50;99.00
43679;DHT22;29279;50.858;4.392;2023-06-05T06:56:57;17.60;98.70
43679;DHT22;29279;50.858;4.392;2023-06-05T06:59:23;17.60;98.70
43679;DHT22;29279;50.858;4.392;2023-06-05T07:02:18;17.60;98.60
43679;DHT22;29279;50.858;4.392;2023-06-05T07:04:45;17.70;98.40
43679;DHT22;29279;50.858;4.392;2023-06-05T07:07:12;17.80;98.00
43679;DHT22;29279;50.858;4.392;2023-06-05T07:09:40;18.00;97.90
43679;DHT22;29279;50.858;4.392;2023-06-05T07:12:09;18.10;97.70
43679;DHT22;29279;50.858;4.392;2023-06-05T07:14:35;18.10;97.50
43679;DHT22;29279;50.858;4.392;2023-06-05T07:17:01;18.20;97.40
43679;DHT22;29279;50.858;4.392;2023-06-05T07:19:28;18.30;97.20
43679;DHT22;29279;50.858;4.392;2023-06-05T07:21:59;18.40;97.00
43679;DHT22;29279;50.858;4.392;2023-06-05T07:24:26;18.40;96.90
43679;DHT22;29279;50.858;4.392;2023-06-05T07:26:59;18.40;97.00
43679;DHT22;29279;50.858;4.392;2023-06-05T07:29:26;18.50;96.80
43679;DHT22;29279;50.858;4.392;2023-06-05T07:31:53;18.60;96.70
43679;DHT22;29279;50.858;4.392;2023-06-05T07:34:21;18.60;96.60
43679;DHT22;29279;50.858;4.392;2023-06-05T07:36:48;18.70;96.40
43679;DHT22;29279;50.858;4.392;2023-06-05T07:39:14;18.80;96.20
43679;DHT22;29279;50.858;4.392;2023-06-05T07:41:41;18.80;96.00
43679;DHT22;29279;50.858;4.392;2023-06-05T07:44:16;18.90;95.90
43679;DHT22;29279;50.858;4.392;2023-06-05T07:46:46;19.00;95.80
43679;DHT22;29279;50.858;4.392;2023-06-05T07:49:12;19.10;95.60
43679;DHT22;29279;50.858;4.392;2023-06-05T07:51:38;19.10;95.60
43679;DHT22;29279;50.858;4.392;2023-06-05T07:54:06;19.10;95.30
43679;DHT22;29279;50.858;4.392;2023-06-05T07:56:32;19.20;95.20
43679;DHT22;29279;50.858;4.392;2023-06-05T07:58:59;19.30;95.10
43679;DHT22;29279;50.858;4.392;2023-06-05T08:01:27;19.40;95.10
43679;DHT22;29279;50.858;4.392;2023-06-05T08:03:53;19.40;94.70
43679;DHT22;29279;50.858;4.392;2023-06-05T08:06:19;19.60;94.50
43679;DHT22;29279;50.858;4.392;2023-06-05T08:08:45;19.40;94.80
43679;DHT22;29279;50.858;4.392;2023-06-05T08:11:10;19.50;94.20
43679;DHT22;29279;50.858;4.392;2023-06-05T08:13:37;19.60;94.20
43679;DHT22;29279;50.858;4.392;2023-06-05T08:16:04;19.70;94.10
43679;DHT22;29279;50.858;4.392;2023-06-05T08:18:30;19.90;93.80
43679;DHT22;29279;50.858;4.392;2023-06-05T08:20:55;20.00;93.40
43679;DHT22;29279;50.858;4.392;2023-06-05T08:23:21;20.10;93.20
43679;DHT22;29279;50.858;4.392;2023-06-05T08:25:47;20.30;92.90
43679;DHT22;29279;50.858;4.392;2023-06-05T08:28:15;20.50;92.60
43679;DHT22;29279;50.858;4.392;2023-06-05T08:30:42;20.50;92.30
43679;DHT22;29279;50.858;4.392;2023-06-05T08:33:07;20.50;92.30
43679;DHT22;29279;50.858;4.392;2023-06-05T08:35:33;20.60;92.10
43679;DHT22;29279;50.858;4.392;2023-06-05T08:37:59;20.70;91.90
43679;DHT22;29279;50.858;4.392;2023-06-05T08:40:28;20.50;92.00
43679;DHT22;29279;50.858;4.392;2023-06-05T08:42:54;20.70;91.80
43679;DHT22;29279;50.858;4.392;2023-06-05T08:45:20;20.90;91.40
43679;DHT22;29279;50.858;4.392;2023-06-05T08:47:50;21.00;91.30
43679;DHT22;29279;50.858;4.392;2023-06-05T08:50:16;21.10;91.30
43679;DHT22;29279;50.858;4.392;2023-06-05T08:52:43;21.20;91.20
43679;DHT22;29279;50.858;4.392;2023-06-05T08:55:11;21.30;91.10
43679;DHT22;29279;50.858;4.392;2023-06-05T08:57:41;21.40;90.70
43679;DHT22;29279;50.858;4.392;2023-06-05T09:00:08;21.50;90.70
43679;DHT22;29279;50.858;4.392;2023-06-05T09:02:40;21.60;90.40
43679;DHT22;29279;50.858;4.392;2023-06-05T09:05:12;21.90;90.30
43679;DHT22;29279;50.858;4.392;2023-06-05T09:07:38;22.00;89.80
43679;DHT22;29279;50.858;4.392;2023-06-05T09:10:06;22.20;89.20
43679;DHT22;29279;50.858;4.392;2023-06-05T09:12:33;22.30;89.00
43679;DHT22;29279;50.858;4.392;2023-06-05T09:15:24;22.50;88.30
43679;DHT22;29279;50.858;4.392;2023-06-05T09:20:36;22.80;87.50
43679;DHT22;29279;50.858;4.392;2023-06-05T09:23:02;23.10;86.00
43679;DHT22;29279;50.858;4.392;2023-06-05T09:25:47;23.40;85.00
43679;DHT22;29279;50.858;4.392;2023-06-05T09:28:16;23.60;85.30
43679;DHT22;29279;50.858;4.392;2023-06-05T09:31:03;23.60;84.60
43679;DHT22;29279;50.858;4.392;2023-06-05T09:33:30;23.50;84.10
43679;DHT22;29279;50.858;4.392;2023-06-05T09:36:07;23.50;84.10
43679;DHT22;29279;50.858;4.392;2023-06-05T09:38:34;23.70;83.40
43679;DHT22;29279;50.858;4.392;2023-06-05T09:41:08;23.90;82.40
43679;DHT22;29279;50.858;4.392;2023-06-05T09:43:34;24.00;82.20
43679;DHT22;29279;50.858;4.392;2023-06-05T09:46:08;24.20;81.90
43679;DHT22;29279;50.858;4.392;2023-06-05T09:48:34;24.50;81.60
43679;DHT22;29279;50.858;4.392;2023-06-05T09:51:26;24.70;80.70
43679;DHT22;29279;50.858;4.392;2023-06-05T09:53:52;24.90;79.90
43679;DHT22;29279;50.858;4.392;2023-06-05T09:56:21;25.10;79.80
43679;DHT22;29279;50.858;4.392;2023-06-05T09:58:51;25.10;79.00
43679;DHT22;29279;50.858;4.392;2023-06-05T10:01:22;25.20;79.20
43679;DHT22;29279;50.858;4.392;2023-06-05T10:06:21;25.40;78.20
43679;DHT22;29279;50.858;4.392;2023-06-05T10:08:50;25.60;77.00
43679;DHT22;29279;50.858;4.392;2023-06-05T10:11:19;25.80;77.10
43679;DHT22;29279;50.858;4.392;2023-06-05T10:13:47;26.00;76.80
43679;DHT22;29279;50.858;4.392;2023-06-05T10:16:15;26.30;75.90
43679;DHT22;29279;50.858;4.392;2023-06-05T10:18:41;26.50;75.40
43679;DHT22;29279;50.858;4.392;2023-06-05T10:21:07;26.80;75.00
43679;DHT22;29279;50.858;4.392;2023-06-05T10:23:33;26.80;75.10
43679;DHT22;29279;50.858;4.392;2023-06-05T10:26:07;27.10;74.30
43679;DHT22;29279;50.858;4.392;2023-06-05T10:35:05;27.70;71.90
43679;DHT22;29279;50.858;4.392;2023-06-05T10:37:59;27.90;72.50
43679;DHT22;29279;50.858;4.392;2023-06-05T10:40:29;28.40;71.40
43679;DHT22;29279;50.858;4.392;2023-06-05T10:43:25;29.20;70.40
43679;DHT22;29279;50.858;4.392;2023-06-05T10:45:52;29.70;69.50
43679;DHT22;29279;50.858;4.392;2023-06-05T10:48:18;30.00;68.70
43679;DHT22;29279;50.858;4.392;2023-06-05T10:50:44;30.10;68.10
43679;DHT22;29279;50.858;4.392;2023-06-05T10:53:47;30.40;67.70
43679;DHT22;29279;50.858;4.392;2023-06-05T10:59:16;30.90;66.30
43679;DHT22;29279;50.858;4.392;2023-06-05T11:01:41;31.10;65.90
43679;DHT22;29279;50.858;4.392;2023-06-05T11:04:07;31.40;64.90
43679;DHT22;29279;50.858;4.392;2023-06-05T11:06:33;31.80;64.60
43679;DHT22;29279;50.858;4.392;2023-06-05T11:09:12;32.30;63.90
43679;DHT22;29279;50.858;4.392;2023-06-05T11:11:59;32.80;64.20
43679;DHT22;29279;50.858;4.392;2023-06-05T11:14:45;33.00;62.90
43679;DHT22;29279;50.858;4.392;2023-06-05T11:17:30;32.70;62.70
43679;DHT22;29279;50.858;4.392;2023-06-05T11:19:57;33.10;62.60
43679;DHT22;29279;50.858;4.392;2023-06-05T11:22:23;33.10;61.70
43679;DHT22;29279;50.858;4.392;2023-06-05T11:25:27;32.70;62.40
43679;DHT22;29279;50.858;4.392;2023-06-05T11:28:02;32.60;62.50
43679;DHT22;29279;50.858;4.392;2023-06-05T11:30:38;33.30;62.20
43679;DHT22;29279;50.858;4.392;2023-06-05T11:35:34;34.30;60.00
43679;DHT22;29279;50.858;4.392;2023-06-05T11:38:17;34.30;60.50
43679;DHT22;29279;50.858;4.392;2023-06-05T11:40:44;34.40;59.70
43679;DHT22;29279;50.858;4.392;2023-06-05T11:43:11;34.20;59.70
43679;DHT22;29279;50.858;4.392;2023-06-05T11:45:39;34.30;59.50
43679;DHT22;29279;50.858;4.392;2023-06-05T11:50:35;34.30;59.30
43679;DHT22;29279;50.858;4.392;2023-06-05T11:53:08;34.40;59.50
43679;DHT22;29279;50.858;4.392;2023-06-05T11:55:35;34.40;59.60
43679;DHT22;29279;50.858;4.392;2023-06-05T11:58:23;34.70;58.90
43679;DHT22;29279;50.858;4.392;2023-06-05T12:00:50;35.20;58.10
43679;DHT22;29279;50.858;4.392;2023-06-05T12:03:20;35.60;58.40
43679;DHT22;29279;50.858;4.392;2023-06-05T12:05:48;35.50;56.70
43679;DHT22;29279;50.858;4.392;2023-06-05T12:08:25;35.30;57.40
43679;DHT22;29279;50.858;4.392;2023-06-05T12:10:52;35.20;57.20
43679;DHT22;29279;50.858;4.392;2023-06-05T12:13:18;35.30;57.40
43679;DHT22;29279;50.858;4.392;2023-06-05T12:15:56;35.30;57.50
43679;DHT22;29279;50.858;4.392;2023-06-05T12:18:33;35.20;57.30
43679;DHT22;29279;50.858;4.392;2023-06-05T12:21:02;35.20;57.50
43679;DHT22;29279;50.858;4.392;2023-06-05T12:23:31;35.40;57.50
43679;DHT22;29279;50.858;4.392;2023-06-05T12:26:02;35.40;57.30
43679;DHT22;29279;50.858;4.392;2023-06-05T12:28:29;35.90;55.70
43679;DHT22;29279;50.858;4.392;2023-06-05T12:30:56;36.00;54.40
43679;DHT22;29279;50.858;4.392;2023-06-05T12:33:23;36.00;54.20
43679;DHT22;29279;50.858;4.392;2023-06-05T12:36:07;36.10;55.20
43679;DHT22;29279;50.858;4.392;2023-06-05T12:38:42;36.40;55.00
43679;DHT22;29279;50.858;4.392;2023-06-05T12:41:08;36.70;55.40
43679;DHT22;29279;50.858;4.392;2023-06-05T12:43:35;37.00;55.10
43679;DHT22;29279;50.858;4.392;2023-06-05T12:46:00;37.10;54.00
43679;DHT22;29279;50.858;4.392;2023-06-05T12:48:27;37.20;52.80
43679;DHT22;29279;50.858;4.392;2023-06-05T12:50:53;37.20;52.60
43679;DHT22;29279;50.858;4.392;2023-06-05T12:53:20;37.30;53.20
43679;DHT22;29279;50.858;4.392;2023-06-05T12:55:45;37.60;52.30
43679;DHT22;29279;50.858;4.392;2023-06-05T12:58:11;37.20;52.20
43679;DHT22;29279;50.858;4.392;2023-06-05T13:00:37;36.90;52.70
43679;DHT22;29279;50.858;4.392;2023-06-05T13:03:03;36.70;51.50
43679;DHT22;29279;50.858;4.392;2023-06-05T13:05:30;36.70;51.70
43679;DHT22;29279;50.858;4.392;2023-06-05T13:07:59;37.00;52.30
43679;DHT22;29279;50.858;4.392;2023-06-05T13:10:25;36.80;52.60
43679;DHT22;29279;50.858;4.392;2023-06-05T13:12:51;36.80;52.70
43679;DHT22;29279;50.858;4.392;2023-06-05T13:15:16;37.00;52.70
43679;DHT22;29279;50.858;4.392;2023-06-05T13:17:42;36.90;51.90
43679;DHT22;29279;50.858;4.392;2023-06-05T13:20:09;36.90;52.70
43679;DHT22;29279;50.858;4.392;2023-06-05T13:22:39;36.70;52.20
43679;DHT22;29279;50.858;4.392;2023-06-05T13:25:06;36.00;52.00
43679;DHT22;29279;50.858;4.392;2023-06-05T13:27:32;36.10;52.10
43679;DHT22;29279;50.858;4.392;2023-06-05T13:29:58;35.60;52.10
43679;DHT22;29279;50.858;4.392;2023-06-05T13:32:24;35.90;52.20
43679;DHT22;29279;50.858;4.392;2023-06-05T13:34:50;36.10;52.80
43679;DHT22;29279;50.858;4.392;2023-06-05T13:37:16;36.10;52.60
43679;DHT22;29279;50.858;4.392;2023-06-05T13:39:41;36.20;52.00
43679;DHT22;29279;50.858;4.392;2023-06-05T13:42:07;36.40;51.60
43679;DHT22;29279;50.858;4.392;2023-06-05T13:44:34;36.30;51.50
43679;DHT22;29279;50.858;4.392;2023-06-05T13:47:00;36.40;51.60
43679;DHT22;29279;50.858;4.392;2023-06-05T13:49:29;36.50;51.50
43679;DHT22;29279;50.858;4.392;2023-06-05T13:51:55;36.00;51.50
43679;DHT22;29279;50.858;4.392;2023-06-05T13:54:20;35.30;52.60
43679;DHT22;29279;50.858;4.392;2023-06-05T13:56:46;35.00;53.00
43679;DHT22;29279;50.858;4.392;2023-06-05T13:59:12;34.50;53.50
43679;DHT22;29279;50.858;4.392;2023-06-05T14:01:37;33.90;54.60
43679;DHT22;29279;50.858;4.392;2023-06-05T14:04:03;34.30;53.80
43679;DHT22;29279;50.858;4.392;2023-06-05T14:06:29;34.80;53.80
43679;DHT22;29279;50.858;4.392;2023-06-05T14:08:54;35.10;53.40
43679;DHT22;29279;50.858;4.392;2023-06-05T14:11:20;35.30;53.50
43679;DHT22;29279;50.858;4.392;2023-06-05T14:13:47;35.40;53.70
43679;DHT22;29279;50.858;4.392;2023-06-05T14:16:13;35.10;53.60
43679;DHT22;29279;50.858;4.392;2023-06-05T14:18:39;34.80;53.40
43679;DHT22;29279;50.858;4.392;2023-06-05T14:21:05;34.80;53.80
43679;DHT22;29279;50.858;4.392;2023-06-05T14:23:31;34.80;53.20
43679;DHT22;29279;50.858;4.392;2023-06-05T14:25:56;34.50;53.90
43679;DHT22;29279;50.858;4.392;2023-06-05T14:28:22;34.50;54.20
43679;DHT22;29279;50.858;4.392;2023-06-05T14:30:48;34.50;54.00
43679;DHT22;29279;50.858;4.392;2023-06-05T14:33:14;34.10;54.10
43679;DHT22;29279;50.858;4.392;2023-06-05T14:35:42;33.70;54.80
43679;DHT22;29279;50.858;4.392;2023-06-05T14:38:08;33.70;54.80
43679;DHT22;29279;50.858;4.392;2023-06-05T14:40:38;33.80;54.50
43679;DHT22;29279;50.858;4.392;2023-06-05T14:43:03;33.60;54.70
43679;DHT22;29279;50.858;4.392;2023-06-05T14:45:29;33.30;54.60
43679;DHT22;29279;50.858;4.392;2023-06-05T14:47:55;33.10;54.80
43679;DHT22;29279;50.858;4.392;2023-06-05T14:50:21;32.80;55.10
43679;DHT22;29279;50.858;4.392;2023-06-05T14:52:46;32.50;55.30
43679;DHT22;29279;50.858;4.392;2023-06-05T14:55:12;32.50;55.60
43679;DHT22;29279;50.858;4.392;2023-06-05T14:57:37;32.50;55.60
43679;DHT22;29279;50.858;4.392;2023-06-05T15:00:05;32.30;55.60
43679;DHT22;29279;50.858;4.392;2023-06-05T15:02:34;32.20;55.70
43679;DHT22;29279;50.858;4.392;2023-06-05T15:05:01;32.00;56.10
43679;DHT22;29279;50.858;4.392;2023-06-05T15:07:38;31.80;56.40
43679;DHT22;29279;50.858;4.392;2023-06-05T15:10:07;31.60;56.60
43679;DHT22;29279;50.858;4.392;2023-06-05T15:12:34;31.20;57.20
43679;DHT22;29279;50.858;4.392;2023-06-05T15:15:00;31.20;57.10
43679;DHT22;29279;50.858;4.392;2023-06-05T15:17:26;31.20;57.50
43679;DHT22;29279;50.858;4.392;2023-06-05T15:19:51;31.30;57.30
43679;DHT22;29279;50.858;4.392;2023-06-05T15:22:17;31.10;57.40
43679;DHT22;29279;50.858;4.392;2023-06-05T15:24:43;31.10;57.60
43679;DHT22;29279;50.858;4.392;2023-06-05T15:27:08;31.00;57.70
43679;DHT22;29279;50.858;4.392;2023-06-05T15:29:36;30.90;57.70
43679;DHT22;29279;50.858;4.392;2023-06-05T15:32:02;30.80;57.20
43679;DHT22;29279;50.858;4.392;2023-06-05T15:34:27;30.70;57.10
43679;DHT22;29279;50.858;4.392;2023-06-05T15:36:53;30.70;57.10
43679;DHT22;29279;50.858;4.392;2023-06-05T15:39:18;30.60;57.80
43679;DHT22;29279;50.858;4.392;2023-06-05T15:41:44;30.40;58.20
43679;DHT22;29279;50.858;4.392;2023-06-05T15:44:14;30.20;58.30
43679;DHT22;29279;50.858;4.392;2023-06-05T15:46:39;30.10;58.30
43679;DHT22;29279;50.858;4.392;2023-06-05T15:49:05;29.80;58.60
43679;DHT22;29279;50.858;4.392;2023-06-05T15:51:31;29.80;59.10
43679;DHT22;29279;50.858;4.392;2023-06-05T15:53:57;30.00;58.90
43679;DHT22;29279;50.858;4.392;2023-06-05T15:56:24;30.10;59.00
43679;DHT22;29279;50.858;4.392;2023-06-05T15:58:53;30.20;58.50